Time;durP1;ratioP1;P1;durP2;ratioP2;P2;SDS_P1;SDS_P2;PMS_P1;PMS_P2;Temp;Humidity;BMP_temperature;BMP_pressure;BME280_temperature;BME280_humidity;BME280_pressure;Samples;Min_cycle;Max_cycle;Signal;HPM_P1;HPM_P2
2023/04/01 00:01:00;;;;;;;11.88;8.48;;;11.10;99.90;;;;;;4937238;29;20186;-75
2023/04/01 00:03:27;;;;;;;13.23;9.57;;;11.10;99.90;;;;;;4937500;29;20211;-75
2023/04/01 00:05:55;;;;;;;9.88;8.63;;;11.10;99.90;;;;;;4951321;29;20776;-77
2023/04/01 00:08:21;;;;;;;10.95;9.18;;;11.00;99.90;;;;;;4935196;29;20219;-75
2023/04/01 00:10:47;;;;;;;12.27;9.27;;;11.00;99.90;;;;;;4951380;29;20191;-75
2023/04/01 00:13:14;;;;;;;12.07;9.57;;;11.00;99.90;;;;;;4936434;29;20211;-76
2023/04/01 00:15:40;;;;;;;11.48;9.32;;;11.00;99.90;;;;;;4936247;29;20180;-75
2023/04/01 00:18:06;;;;;;;12.75;9.18;;;11.00;99.90;;;;;;4934942;29;20191;-76
2023/04/01 00:20:32;;;;;;;13.60;10.15;;;11.00;99.90;;;;;;4936574;29;20572;-75
2023/04/01 00:22:58;;;;;;;13.35;9.77;;;11.10;99.90;;;;;;4937181;29;20187;-75
2023/04/01 00:25:24;;;;;;;13.50;9.73;;;11.00;99.90;;;;;;4936430;29;20171;-76
2023/04/01 00:27:50;;;;;;;11.65;9.52;;;11.10;99.90;;;;;;4936652;29;20282;-75
2023/04/01 00:30:16;;;;;;;11.10;9.32;;;11.10;99.90;;;;;;4951079;29;20258;-75
2023/04/01 00:32:42;;;;;;;11.68;9.43;;;11.10;99.90;;;;;;4935421;29;20219;-76
2023/04/01 00:35:08;;;;;;;16.38;10.20;;;11.10;99.90;;;;;;4934530;29;20653;-75
2023/04/01 00:37:39;;;;;;;13.55;10.02;;;11.10;99.90;;;;;;4936307;29;20539;-76
2023/04/01 00:40:07;;;;;;;14.30;9.52;;;11.10;99.90;;;;;;4935186;29;20194;-76
2023/04/01 00:42:33;;;;;;;12.90;9.88;;;11.10;99.90;;;;;;4935517;29;20246;-75
2023/04/01 00:45:18;;;;;;;10.40;8.73;;;11.10;99.90;;;;;;4936305;29;20262;-75
2023/04/01 00:47:44;;;;;;;11.38;9.35;;;11.10;99.90;;;;;;4950198;28;20222;-79
2023/04/01 00:50:10;;;;;;;17.35;10.32;;;11.10;99.90;;;;;;4950666;29;20281;-75
2023/04/01 00:52:36;;;;;;;15.20;9.73;;;11.10;99.90;;;;;;4935987;29;20218;-75
2023/04/01 00:55:06;;;;;;;13.38;9.52;;;11.10;99.90;;;;;;4950488;29;20190;-75
2023/04/01 00:57:37;;;;;;;13.05;9.70;;;11.10;99.90;;;;;;4935947;29;20676;-76
2023/04/01 01:00:09;;;;;;;15.70;10.10;;;11.10;99.90;;;;;;4935341;29;20283;-75
2023/04/01 01:02:35;;;;;;;15.10;10.32;;;11.10;99.90;;;;;;4950677;29;20234;-76
2023/04/01 01:05:01;;;;;;;13.43;10.20;;;11.10;99.90;;;;;;4934631;29;20187;-76
2023/04/01 01:07:33;;;;;;;14.30;10.82;;;11.10;99.90;;;;;;4935604;29;20202;-75
2023/04/01 01:10:06;;;;;;;14.45;10.27;;;11.10;99.90;;;;;;4936412;29;20194;-75
2023/04/01 01:12:45;;;;;;;13.15;10.40;;;11.00;99.90;;;;;;4950806;29;20176;-75
2023/04/01 01:15:25;;;;;;;14.98;10.27;;;11.10;99.90;;;;;;4934549;29;20238;-75
2023/04/01 01:17:54;;;;;;;14.60;10.00;;;11.00;99.90;;;;;;4936577;29;20206;-76
2023/04/01 01:20:50;;;;;;;12.95;10.63;;;11.00;99.90;;;;;;4934198;29;20187;-77
2023/04/01 01:23:53;;;;;;;14.60;10.38;;;11.00;99.90;;;;;;4950695;29;20191;-75
2023/04/01 01:26:42;;;;;;;12.90;10.32;;;11.00;99.90;;;;;;4935799;29;20670;-75
2023/04/01 01:29:23;;;;;;;13.05;10.93;;;11.00;99.90;;;;;;4950692;29;20742;-77
2023/04/01 01:32:05;;;;;;;15.68;11.48;;;11.00;99.90;;;;;;4950327;29;20180;-75
2023/04/01 01:34:48;;;;;;;14.48;11.40;;;11.00;99.90;;;;;;4936059;29;20507;-75
2023/04/01 01:37:18;;;;;;;14.07;10.80;;;11.00;99.90;;;;;;4935935;28;20175;-80
2023/04/01 01:39:52;;;;;;;12.93;11.13;;;11.00;99.90;;;;;;4951086;28;20183;-75
2023/04/01 01:42:20;;;;;;;17.13;11.57;;;11.00;99.90;;;;;;4934742;29;20175;-75
2023/04/01 01:44:49;;;;;;;13.63;11.05;;;11.00;99.90;;;;;;4935399;29;20266;-75
2023/04/01 01:47:17;;;;;;;15.45;11.93;;;11.00;99.90;;;;;;4952540;28;20183;-75
2023/04/01 01:49:44;;;;;;;13.50;11.27;;;11.00;99.90;;;;;;4953841;29;20258;-75
2023/04/01 01:52:12;;;;;;;14.45;11.63;;;11.00;99.90;;;;;;4939185;29;20194;-75
2023/04/01 01:54:51;;;;;;;14.43;11.77;;;11.00;99.90;;;;;;4953867;28;20266;-76
2023/04/01 01:57:25;;;;;;;14.20;11.20;;;11.00;99.90;;;;;;4938003;29;20175;-76
2023/04/01 01:59:56;;;;;;;15.93;11.68;;;10.90;99.90;;;;;;4953767;28;20185;-75
2023/04/01 02:02:26;;;;;;;15.23;11.10;;;10.90;99.90;;;;;;4938548;29;20187;-76
2023/04/01 02:04:53;;;;;;;18.55;11.00;;;10.90;99.90;;;;;;4906258;29;20179;-76
2023/04/01 02:07:25;;;;;;;14.95;11.50;;;10.90;99.90;;;;;;4953565;29;20179;-75
2023/04/01 02:09:51;;;;;;;15.65;11.48;;;10.90;99.90;;;;;;4953682;28;20637;-75
2023/04/01 02:12:21;;;;;;;14.73;11.70;;;10.90;99.90;;;;;;4953724;28;20191;-75
2023/04/01 02:14:50;;;;;;;17.42;11.25;;;10.90;99.90;;;;;;4937327;29;20270;-79
2023/04/01 02:17:20;;;;;;;14.73;11.15;;;10.90;99.90;;;;;;4953577;29;20274;-75
2023/04/01 02:19:57;;;;;;;17.73;11.73;;;10.90;99.90;;;;;;4938691;29;20270;-75
2023/04/01 02:22:28;;;;;;;16.02;11.13;;;10.90;99.90;;;;;;4953037;29;20242;-75
2023/04/01 02:24:59;;;;;;;17.63;11.52;;;10.90;99.90;;;;;;4938497;29;20184;-76
2023/04/01 02:27:25;;;;;;;14.10;11.52;;;10.90;99.90;;;;;;4953772;29;20175;-75
2023/04/01 02:29:52;;;;;;;14.93;11.25;;;10.90;99.90;;;;;;4953286;29;20203;-76
2023/04/01 02:32:20;;;;;;;18.42;10.98;;;10.90;99.90;;;;;;4938092;29;20290;-76
2023/04/01 02:34:47;;;;;;;17.38;11.95;;;10.90;99.90;;;;;;4938357;29;20199;-75
2023/04/01 02:37:14;;;;;;;15.82;10.82;;;10.80;99.90;;;;;;4938322;29;20175;-74
2023/04/01 02:39:42;;;;;;;15.00;10.68;;;10.90;99.90;;;;;;4953145;28;20191;-75
2023/04/01 02:42:08;;;;;;;15.00;11.45;;;10.80;99.90;;;;;;4937918;29;20664;-75
2023/04/01 02:44:33;;;;;;;18.55;10.95;;;10.90;99.90;;;;;;4952962;29;20191;-76
2023/04/01 02:46:59;;;;;;;14.13;11.27;;;10.90;99.90;;;;;;4952963;29;20188;-76
2023/04/01 02:49:25;;;;;;;17.58;12.00;;;10.80;99.90;;;;;;4938362;28;20218;-75
2023/04/01 02:51:51;;;;;;;19.75;12.68;;;10.80;99.90;;;;;;4938880;29;20664;-76
2023/04/01 02:54:18;;;;;;;17.17;12.38;;;10.80;99.90;;;;;;4937003;29;20274;-75
2023/04/01 02:56:45;;;;;;;19.92;12.77;;;10.80;99.90;;;;;;4936599;29;20186;-77
2023/04/01 02:59:11;;;;;;;20.00;13.05;;;10.80;99.90;;;;;;4937810;29;20187;-75
2023/04/01 03:01:37;;;;;;;17.95;13.40;;;10.80;99.90;;;;;;4938109;29;20205;-79
2023/04/01 03:04:04;;;;;;;19.05;14.52;;;10.80;99.90;;;;;;4952839;28;20179;-75
2023/04/01 03:06:30;;;;;;;19.55;14.32;;;10.80;99.90;;;;;;4953356;29;20179;-75
2023/04/01 03:08:56;;;;;;;20.08;15.48;;;10.90;99.90;;;;;;4938129;29;20211;-75
2023/04/01 03:11:21;;;;;;;19.80;14.75;;;10.80;99.90;;;;;;4936569;29;20620;-77
2023/04/01 03:13:48;;;;;;;21.40;14.32;;;10.80;99.90;;;;;;4952702;28;20223;-75
2023/04/01 03:16:15;;;;;;;21.67;16.23;;;10.90;99.90;;;;;;4920925;29;20282;-75
2023/04/01 03:18:41;;;;;;;21.35;15.13;;;10.80;99.90;;;;;;4936428;29;20218;-75
2023/04/01 03:21:18;;;;;;;22.20;16.33;;;10.90;99.90;;;;;;4936304;29;20315;-75
2023/04/01 03:23:44;;;;;;;19.63;15.38;;;10.80;99.90;;;;;;4952374;28;20186;-75
2023/04/01 03:26:10;;;;;;;20.75;15.45;;;10.80;99.90;;;;;;4937941;29;20492;-75
2023/04/01 03:28:36;;;;;;;25.17;16.08;;;10.80;99.90;;;;;;4952256;29;20225;-75
2023/04/01 03:31:02;;;;;;;22.40;16.77;;;10.80;99.90;;;;;;4951963;29;20619;-76
2023/04/01 03:33:33;;;;;;;27.70;17.50;;;10.80;99.90;;;;;;4952752;29;20183;-75
2023/04/01 03:35:59;;;;;;;21.88;16.65;;;10.80;99.90;;;;;;4936439;29;20274;-76
2023/04/01 03:38:25;;;;;;;24.25;17.35;;;10.90;99.90;;;;;;4952859;29;20650;-76
2023/04/01 03:40:50;;;;;;;25.52;16.58;;;10.90;99.90;;;;;;4937794;29;20195;-75
2023/04/01 03:43:16;;;;;;;22.77;16.67;;;10.80;99.90;;;;;;4936560;29;20183;-76
2023/04/01 03:45:46;;;;;;;27.75;17.67;;;10.80;99.90;;;;;;4937925;29;20218;-76
2023/04/01 03:48:14;;;;;;;25.98;17.10;;;10.80;99.90;;;;;;4936289;29;20293;-75
2023/04/01 03:50:40;;;;;;;24.00;16.98;;;10.80;99.90;;;;;;4952233;29;20191;-75
2023/04/01 03:53:06;;;;;;;23.77;16.80;;;10.80;99.90;;;;;;4952792;29;20659;-75
2023/04/01 03:55:36;;;;;;;27.20;17.65;;;10.80;99.90;;;;;;4952140;29;20288;-76
2023/04/01 03:58:03;;;;;;;23.95;17.35;;;10.80;99.90;;;;;;4951466;29;20183;-75
2023/04/01 04:00:30;;;;;;;25.90;16.77;;;10.80;99.90;;;;;;4936146;29;20183;-76
2023/04/01 04:02:57;;;;;;;23.83;16.65;;;10.80;99.90;;;;;;4952378;29;20545;-75
2023/04/01 04:05:29;;;;;;;24.52;17.83;;;10.80;99.90;;;;;;4952101;29;20622;-76
2023/04/01 04:07:55;;;;;;;23.98;16.83;;;10.80;99.90;;;;;;4951441;28;20279;-76
2023/04/01 04:10:22;;;;;;;24.73;17.05;;;10.80;99.90;;;;;;4936446;29;20191;-76
2023/04/01 04:12:49;;;;;;;26.05;17.88;;;10.80;99.90;;;;;;4936336;29;20229;-75
2023/04/01 04:15:15;;;;;;;22.58;17.13;;;10.80;99.90;;;;;;4936021;29;20202;-75
2023/04/01 04:17:42;;;;;;;24.52;16.95;;;10.80;99.90;;;;;;4935944;29;20218;-76
2023/04/01 04:20:08;;;;;;;23.90;17.23;;;10.80;99.90;;;;;;4934988;29;20687;-83
2023/04/01 04:22:36;;;;;;;24.60;17.85;;;10.80;99.90;;;;;;4951817;28;20200;-77
2023/04/01 04:25:05;;;;;;;23.67;17.80;;;10.80;99.90;;;;;;4951312;28;20184;-74
2023/04/01 04:27:31;;;;;;;28.30;18.08;;;10.80;99.90;;;;;;4951930;29;20297;-76
2023/04/01 04:30:07;;;;;;;28.42;19.02;;;10.80;99.90;;;;;;4951742;29;20314;-75
2023/04/01 04:32:33;;;;;;;28.77;18.17;;;10.80;99.90;;;;;;4951521;28;20187;-75
2023/04/01 04:34:59;;;;;;;23.48;17.60;;;10.80;99.90;;;;;;4935849;29;20180;-75
2023/04/01 04:37:25;;;;;;;24.83;18.30;;;10.80;99.90;;;;;;4935542;29;20338;-75
2023/04/01 04:39:52;;;;;;;27.45;18.95;;;10.80;99.90;;;;;;4919529;29;20183;-76
2023/04/01 04:42:18;;;;;;;26.25;18.77;;;10.80;99.90;;;;;;4935459;29;20551;-75
2023/04/01 04:44:45;;;;;;;24.63;18.77;;;10.80;99.90;;;;;;4951330;29;20707;-76
2023/04/01 04:47:10;;;;;;;27.42;18.80;;;10.80;99.90;;;;;;4935332;29;20213;-76
2023/04/01 04:49:36;;;;;;;25.92;18.83;;;10.70;99.90;;;;;;4935141;29;20623;-76
2023/04/01 04:52:07;;;;;;;26.23;19.48;;;10.80;99.90;;;;;;4935226;29;20636;-76
2023/04/01 04:54:32;;;;;;;25.58;19.40;;;10.80;99.90;;;;;;4950714;28;20194;-75
2023/04/01 04:57:00;;;;;;;25.77;19.70;;;10.80;99.90;;;;;;4935484;29;20186;-80
2023/04/01 04:59:31;;;;;;;28.25;19.85;;;10.80;99.90;;;;;;4934605;29;20225;-76
2023/04/01 05:02:05;;;;;;;27.50;20.20;;;10.80;99.90;;;;;;4934698;29;20190;-75
2023/04/01 05:04:35;;;;;;;27.45;20.42;;;10.80;99.90;;;;;;4950365;29;20631;-75
2023/04/01 05:07:02;;;;;;;26.17;18.67;;;10.70;99.90;;;;;;4936005;29;20517;-76
2023/04/01 05:09:28;;;;;;;26.80;19.25;;;10.80;99.90;;;;;;4934670;29;20218;-75
2023/04/01 05:11:54;;;;;;;27.10;19.25;;;10.80;99.90;;;;;;4935097;29;20186;-76
2023/04/01 05:14:21;;;;;;;29.77;19.48;;;10.80;99.90;;;;;;4950475;29;20600;-76
2023/04/01 05:16:57;;;;;;;28.88;20.10;;;10.80;99.90;;;;;;4934942;29;20179;-75
2023/04/01 05:19:23;;;;;;;26.90;20.50;;;10.80;99.90;;;;;;4950438;29;20187;-76
2023/04/01 05:21:49;;;;;;;26.80;19.33;;;10.80;99.90;;;;;;4952238;28;20241;-76
2023/04/01 05:24:15;;;;;;;28.63;20.95;;;10.80;99.90;;;;;;4938454;29;20565;-75
2023/04/01 05:26:41;;;;;;;27.60;19.50;;;10.80;99.90;;;;;;4955143;29;20195;-75
2023/04/01 05:29:07;;;;;;;29.20;19.70;;;10.80;99.90;;;;;;4954482;29;20203;-75
2023/04/01 05:31:33;;;;;;;29.33;19.92;;;10.80;99.90;;;;;;4954928;28;20632;-79
2023/04/01 05:34:00;;;;;;;27.33;20.20;;;10.80;99.90;;;;;;4939246;29;20183;-75
2023/04/01 05:36:25;;;;;;;27.15;20.65;;;10.80;99.90;;;;;;4955146;28;20576;-79
2023/04/01 05:38:56;;;;;;;26.65;19.70;;;10.80;99.90;;;;;;4923001;29;20286;-75
2023/04/01 05:41:24;;;;;;;29.35;19.90;;;10.80;99.90;;;;;;4954213;29;20234;-77
2023/04/01 05:43:50;;;;;;;25.85;17.92;;;10.80;99.90;;;;;;4939359;29;20231;-75
2023/04/01 05:46:34;;;;;;;28.92;19.42;;;10.80;99.90;;;;;;4938858;29;20250;-75
2023/04/01 05:49:19;;;;;;;25.98;18.25;;;10.80;99.90;;;;;;4938352;29;20259;-73
2023/04/01 05:51:45;;;;;;;26.02;19.05;;;10.70;99.90;;;;;;4937795;29;20285;-74
2023/04/01 05:54:11;;;;;;;29.50;18.75;;;10.70;99.90;;;;;;4953879;29;20319;-75
2023/04/01 05:56:37;;;;;;;26.02;18.67;;;10.80;99.90;;;;;;4953853;29;20198;-74
2023/04/01 05:59:03;;;;;;;26.45;17.35;;;10.70;99.90;;;;;;4953711;28;20549;-74
2023/04/01 06:01:29;;;;;;;25.45;17.80;;;10.70;99.90;;;;;;4937766;29;20194;-75
2023/04/01 06:03:55;;;;;;;25.77;17.98;;;10.70;99.90;;;;;;4922446;29;20183;-73
2023/04/01 06:06:25;;;;;;;26.70;17.65;;;10.70;99.90;;;;;;4938426;29;20215;-73
2023/04/01 06:08:55;;;;;;;24.88;17.70;;;10.70;99.90;;;;;;4953604;29;20207;-74
2023/04/01 06:12:04;;;;;;;27.88;17.77;;;10.70;99.90;;;;;;4937382;29;20180;-73
2023/04/01 06:14:45;;;;;;;26.42;18.13;;;10.70;99.90;;;;;;4953452;28;20195;-73
2023/04/01 06:17:23;;;;;;;29.80;20.33;;;10.80;99.90;;;;;;4953575;28;20183;-73
2023/04/01 06:20:27;;;;;;;27.40;19.20;;;10.70;99.90;;;;;;4953580;29;20197;-73
2023/04/01 06:22:56;;;;;;;26.73;19.50;;;10.80;99.90;;;;;;4953308;29;20202;-72
2023/04/01 06:25:30;;;;;;;26.70;18.67;;;10.80;99.90;;;;;;4937151;29;20191;-73
2023/04/01 06:28:35;;;;;;;27.25;19.13;;;10.80;99.90;;;;;;4953259;29;20191;-74
2023/04/01 06:31:12;;;;;;;29.55;19.10;;;10.80;99.90;;;;;;4953372;29;20187;-74
2023/04/01 06:34:06;;;;;;;27.88;18.60;;;10.80;99.90;;;;;;4936164;29;20250;-79
2023/04/01 06:36:57;;;;;;;29.55;19.88;;;10.80;99.90;;;;;;4936886;29;20194;-74
2023/04/01 06:39:48;;;;;;;31.02;21.08;;;10.80;99.90;;;;;;4937097;29;20181;-73
2023/04/01 06:42:22;;;;;;;30.45;21.83;;;10.80;99.90;;;;;;4953624;29;20235;-73
2023/04/01 06:45:06;;;;;;;27.17;20.63;;;10.80;99.90;;;;;;4953171;28;20182;-73
2023/04/01 06:48:11;;;;;;;28.40;20.77;;;10.90;99.90;;;;;;4938577;29;20712;-73
2023/04/01 06:51:24;;;;;;;29.65;21.05;;;10.90;99.90;;;;;;4938670;29;20234;-72
2023/04/01 06:54:31;;;;;;;32.47;22.08;;;11.00;99.90;;;;;;4956018;28;20191;-73
2023/04/01 06:57:25;;;;;;;30.30;22.08;;;11.00;99.90;;;;;;4938047;28;20262;-73
2023/04/01 06:59:54;;;;;;;30.17;22.08;;;11.00;99.90;;;;;;4937751;29;20175;-73
2023/04/01 07:02:28;;;;;;;35.78;23.65;;;11.00;99.90;;;;;;4937583;29;20176;-73
2023/04/01 07:04:57;;;;;;;32.15;22.77;;;11.00;99.90;;;;;;4937148;29;20477;-73
2023/04/01 07:07:55;;;;;;;33.47;23.65;;;11.00;99.90;;;;;;4936111;29;20179;-77
2023/04/01 07:10:43;;;;;;;39.33;25.02;;;11.00;99.90;;;;;;4936611;29;20290;-74
2023/04/01 07:14:16;;;;;;;33.55;23.83;;;11.00;99.90;;;;;;4973726;28;20186;-74
2023/04/01 07:17:11;;;;;;;33.15;23.67;;;11.00;99.90;;;;;;4973008;28;20225;-73
2023/04/01 07:19:53;;;;;;;40.90;25.48;;;11.10;99.90;;;;;;4952452;28;20251;-74
2023/04/01 07:22:57;;;;;;;37.15;23.95;;;11.10;99.90;;;;;;4935925;29;20282;-72
2023/04/01 07:25:39;;;;;;;37.30;24.85;;;11.10;99.90;;;;;;4935142;29;20187;-73
2023/04/01 07:28:37;;;;;;;36.35;23.65;;;11.10;99.90;;;;;;4942210;29;20227;-80
2023/04/01 07:31:24;;;;;;;36.88;24.92;;;11.20;99.90;;;;;;4952132;29;20550;-73
2023/04/01 07:34:16;;;;;;;33.67;24.00;;;11.20;99.90;;;;;;4937762;29;20592;-75
2023/04/01 07:37:05;;;;;;;34.83;23.70;;;11.20;99.90;;;;;;4937053;29;20191;-77
2023/04/01 07:39:50;;;;;;;32.45;22.27;;;11.20;99.90;;;;;;4952173;28;20619;-73
2023/04/01 07:42:41;;;;;;;29.40;21.00;;;11.20;99.90;;;;;;4952453;28;20184;-73
2023/04/01 07:45:31;;;;;;;29.20;19.85;;;11.30;99.90;;;;;;4951209;28;20223;-73
2023/04/01 07:48:25;;;;;;;30.73;21.45;;;11.30;99.90;;;;;;4935264;29;20275;-76
2023/04/01 07:51:19;;;;;;;31.63;22.63;;;11.30;99.90;;;;;;4951804;28;20658;-73
2023/04/01 07:54:00;;;;;;;31.55;23.15;;;11.30;99.90;;;;;;4951506;29;20278;-73
2023/04/01 07:56:32;;;;;;;32.40;22.67;;;11.30;99.90;;;;;;4937329;29;20242;-73
2023/04/01 07:59:19;;;;;;;34.58;24.45;;;11.30;99.90;;;;;;4951620;28;20238;-73
2023/04/01 08:02:40;;;;;;;32.90;23.20;;;11.30;99.90;;;;;;4936399;28;20262;-73
2023/04/01 08:05:21;;;;;;;32.92;23.70;;;11.30;99.90;;;;;;4951337;28;20178;-73
2023/04/01 08:08:03;;;;;;;29.45;21.55;;;11.30;99.90;;;;;;4951588;29;20569;-72
2023/04/01 08:11:35;;;;;;;28.45;20.85;;;11.40;99.90;;;;;;4949778;29;20214;-73
2023/04/01 08:14:51;;;;;;;27.50;19.85;;;11.40;99.90;;;;;;4936753;29;20198;-73
2023/04/01 08:18:14;;;;;;;29.48;19.90;;;11.50;99.90;;;;;;4953655;28;20650;-75
2023/04/01 08:20:46;;;;;;;25.27;18.20;;;11.60;99.90;;;;;;4950824;29;20219;-73
2023/04/01 08:23:23;;;;;;;25.83;18.45;;;11.60;99.90;;;;;;4952046;28;20229;-73
2023/04/01 08:26:12;;;;;;;22.98;17.45;;;11.70;99.90;;;;;;4936348;29;20270;-73
2023/04/01 08:28:49;;;;;;;24.60;17.60;;;11.70;99.90;;;;;;4942849;29;20218;-73
2023/04/01 08:32:10;;;;;;;22.48;16.80;;;11.70;99.90;;;;;;4936117;28;20191;-73
2023/04/01 08:34:42;;;;;;;26.63;17.52;;;11.70;99.90;;;;;;4934174;29;20187;-73
2023/04/01 08:37:20;;;;;;;24.83;18.60;;;11.70;99.90;;;;;;4934079;29;20202;-73
2023/04/01 08:39:58;;;;;;;24.20;17.73;;;11.70;99.90;;;;;;4929609;29;20191;-74
2023/04/01 08:42:59;;;;;;;24.92;17.73;;;11.80;99.90;;;;;;4935833;29;20210;-73
2023/04/01 08:45:31;;;;;;;23.90;17.85;;;11.80;99.90;;;;;;4935117;29;20178;-73
2023/04/01 08:48:19;;;;;;;24.23;18.13;;;11.90;99.90;;;;;;4936428;29;20179;-74
2023/04/01 08:51:03;;;;;;;27.85;18.27;;;11.90;99.90;;;;;;4951750;29;20212;-74
2023/04/01 08:53:36;;;;;;;23.42;17.27;;;11.90;99.90;;;;;;4934985;29;20191;-74
2023/04/01 08:56:23;;;;;;;16.73;11.73;;;12.00;99.90;;;;;;4950463;28;20214;-74
2023/04/01 08:59:10;;;;;;;13.13;9.73;;;12.00;99.90;;;;;;4951398;28;20176;-73
2023/04/01 09:01:37;;;;;;;12.10;8.52;;;11.90;99.90;;;;;;4934999;29;20190;-76
2023/04/01 09:04:13;;;;;;;11.45;8.35;;;11.90;99.90;;;;;;4950910;29;20543;-73
2023/04/01 09:07:18;;;;;;;10.95;8.55;;;11.80;99.90;;;;;;4950614;29;20179;-76
2023/04/01 09:09:48;;;;;;;10.35;8.50;;;11.70;99.90;;;;;;4934715;29;20273;-74
2023/04/01 09:12:21;;;;;;;11.77;8.35;;;11.70;99.90;;;;;;4950687;29;20195;-74
2023/04/01 09:14:47;;;;;;;11.50;8.50;;;11.60;99.90;;;;;;4934780;29;20662;-73
2023/04/01 09:17:29;;;;;;;10.55;7.47;;;11.50;99.90;;;;;;4950843;29;20237;-73
2023/04/01 09:20:17;;;;;;;9.48;5.70;;;11.40;99.90;;;;;;4950870;29;20337;-74
2023/04/01 09:22:46;;;;;;;6.47;5.30;;;11.40;99.90;;;;;;4936002;29;20254;-74
2023/04/01 09:25:53;;;;;;;6.50;5.20;;;11.40;99.90;;;;;;4950445;29;20270;-73
2023/04/01 09:28:42;;;;;;;7.40;4.90;;;11.30;99.90;;;;;;4934410;29;20221;-73
2023/04/01 09:31:11;;;;;;;6.60;5.05;;;11.30;99.90;;;;;;4920833;29;20175;-72
2023/04/01 09:34:05;;;;;;;7.90;4.13;;;11.20;99.90;;;;;;4951090;29;20620;-73
2023/04/01 09:36:52;;;;;;;7.68;5.00;;;11.20;99.90;;;;;;4934560;29;20239;-74
2023/04/01 09:39:19;;;;;;;4.32;3.70;;;11.20;99.90;;;;;;4934461;29;20207;-72
2023/04/01 09:42:01;;;;;;;5.45;3.78;;;11.30;99.90;;;;;;4935680;29;20186;-73
2023/04/01 09:44:48;;;;;;;6.68;3.95;;;11.20;99.90;;;;;;4951106;29;20183;-73
2023/04/01 09:47:35;;;;;;;6.13;4.32;;;11.20;99.90;;;;;;4950142;29;20190;-72
2023/04/01 09:50:43;;;;;;;6.38;4.32;;;11.30;99.90;;;;;;4950235;29;20280;-72
2023/04/01 09:53:17;;;;;;;6.35;4.80;;;11.30;99.90;;;;;;4935412;28;20175;-77
2023/04/01 09:56:20;;;;;;;5.20;4.28;;;11.30;99.90;;;;;;4936189;29;20176;-73
2023/04/01 09:59:01;;;;;;;6.72;5.03;;;11.20;99.90;;;;;;4950217;29;20191;-79
2023/04/01 10:02:04;;;;;;;6.22;4.97;;;11.20;99.90;;;;;;4948721;29;20179;-73
2023/04/01 10:05:23;;;;;;;6.25;4.85;;;11.20;99.90;;;;;;4950229;28;20214;-72
2023/04/01 10:08:13;;;;;;;7.53;4.35;;;11.10;99.90;;;;;;4951723;28;20192;-72
2023/04/01 10:11:20;;;;;;;5.20;3.90;;;11.20;99.90;;;;;;4953968;29;20187;-73
2023/04/01 10:14:24;;;;;;;4.65;3.42;;;11.20;99.90;;;;;;4948641;28;20194;-72
2023/04/01 10:17:36;;;;;;;5.65;3.97;;;11.10;99.90;;;;;;4937626;29;20175;-72
2023/04/01 10:20:32;;;;;;;4.90;3.83;;;11.10;99.90;;;;;;4938954;29;20203;-73
2023/04/01 10:23:20;;;;;;;4.68;3.17;;;11.10;99.90;;;;;;4951495;28;20229;-72
2023/04/01 10:25:58;;;;;;;4.28;3.15;;;11.10;99.90;;;;;;4953671;29;20186;-73
2023/04/01 10:28:49;;;;;;;4.90;3.53;;;11.10;99.90;;;;;;4953280;29;20210;-73
2023/04/01 10:31:55;;;;;;;4.50;2.92;;;11.10;99.90;;;;;;4951510;29;20179;-75
2023/04/01 10:34:50;;;;;;;4.13;3.22;;;11.10;99.90;;;;;;4953971;29;20179;-76
2023/04/01 10:37:37;;;;;;;3.13;2.67;;;11.20;99.90;;;;;;4953054;29;20214;-73
2023/04/01 10:41:06;;;;;;;3.83;3.15;;;11.20;99.90;;;;;;4954018;29;20330;-73
2023/04/01 10:44:38;;;;;;;3.47;2.70;;;11.10;99.90;;;;;;4917055;29;20270;-74
2023/04/01 10:47:32;;;;;;;5.55;2.72;;;11.10;99.90;;;;;;4953464;28;20184;-73
2023/04/01 10:50:17;;;;;;;3.42;2.85;;;11.10;99.90;;;;;;4953517;29;20210;-74
2023/04/01 10:53:34;;;;;;;3.20;2.90;;;11.10;99.90;;;;;;4953768;29;20183;-73
2023/04/01 10:56:44;;;;;;;3.25;2.92;;;11.10;99.90;;;;;;4927869;29;20203;-73
2023/04/01 10:59:31;;;;;;;4.40;3.40;;;11.00;99.90;;;;;;4938559;29;20191;-74
2023/04/01 11:02:15;;;;;;;5.32;3.65;;;11.00;99.90;;;;;;4938224;29;20180;-76
2023/04/01 11:05:21;;;;;;;3.83;3.40;;;10.90;99.90;;;;;;4959744;28;20187;-73
2023/04/01 11:08:24;;;;;;;5.65;3.70;;;10.90;99.90;;;;;;4947213;28;20195;-73
2023/04/01 11:11:13;;;;;;;6.38;4.25;;;10.90;99.90;;;;;;4937101;29;20199;-73
2023/04/01 11:14:08;;;;;;;6.43;4.00;;;10.80;99.90;;;;;;4936948;29;20191;-73
2023/04/01 11:17:15;;;;;;;5.28;3.83;;;10.80;99.90;;;;;;4952677;29;20184;-78
2023/04/01 11:20:22;;;;;;;5.18;3.67;;;10.70;99.90;;;;;;4900106;29;20184;-73
2023/04/01 11:23:15;;;;;;;5.15;3.83;;;10.70;99.90;;;;;;4916183;29;20530;-75
2023/04/01 11:25:47;;;;;;;4.30;3.85;;;10.70;99.90;;;;;;4936438;29;20226;-73
2023/04/01 11:28:50;;;;;;;6.50;3.45;;;10.70;99.90;;;;;;4937597;29;20247;-73
2023/04/01 11:31:56;;;;;;;3.55;3.15;;;10.70;99.90;;;;;;4938091;29;20168;-73
2023/04/01 11:34:48;;;;;;;3.78;3.03;;;10.70;99.90;;;;;;4952357;28;20187;-73
2023/04/01 11:37:19;;;;;;;4.25;3.15;;;10.70;99.90;;;;;;4936256;29;20198;-73
2023/04/01 11:40:18;;;;;;;3.30;3.00;;;10.70;99.90;;;;;;4937009;29;20195;-73
2023/04/01 11:43:32;;;;;;;3.25;2.58;;;10.70;99.90;;;;;;4945462;28;20183;-73
2023/04/01 11:46:58;;;;;;;5.25;2.90;;;10.70;99.90;;;;;;4944806;28;20191;-75
2023/04/01 11:49:46;;;;;;;3.88;2.70;;;10.80;99.90;;;;;;4951801;29;20218;-73
2023/04/01 11:53:05;;;;;;;3.50;2.80;;;10.80;99.90;;;;;;4936096;29;20710;-73
2023/04/01 11:56:00;;;;;;;4.57;3.40;;;10.80;99.90;;;;;;4936933;29;20214;-73
2023/04/01 11:58:26;;;;;;;4.65;2.97;;;10.80;99.90;;;;;;4937093;29;20191;-73
2023/04/01 12:01:10;;;;;;;3.65;2.60;;;10.80;99.90;;;;;;4937039;29;20179;-73
2023/04/01 12:03:48;;;;;;;3.25;2.80;;;10.80;99.90;;;;;;4952093;29;20234;-73
2023/04/01 12:06:26;;;;;;;5.07;2.97;;;10.80;99.90;;;;;;4937591;29;20194;-72
2023/04/01 12:09:14;;;;;;;6.25;2.92;;;10.80;99.90;;;;;;4937081;29;20191;-75
2023/04/01 12:12:17;;;;;;;4.18;2.97;;;10.80;99.90;;;;;;4937274;29;20195;-77
2023/04/01 12:14:52;;;;;;;3.20;2.90;;;10.80;99.90;;;;;;4937721;29;20175;-74
2023/04/01 12:17:45;;;;;;;5.03;2.60;;;10.80;99.90;;;;;;4951634;29;20175;-74
2023/04/01 12:20:11;;;;;;;3.17;2.80;;;10.90;99.90;;;;;;4936562;29;20651;-74
2023/04/01 12:23:08;;;;;;;3.10;2.60;;;10.90;99.90;;;;;;4936544;29;20223;-74
2023/04/01 12:26:02;;;;;;;3.92;2.90;;;10.90;99.90;;;;;;4936359;29;20175;-75
2023/04/01 12:28:59;;;;;;;4.50;2.60;;;10.90;99.90;;;;;;4936099;29;20667;-73
2023/04/01 12:31:26;;;;;;;4.03;2.85;;;10.90;99.90;;;;;;4950649;28;20278;-73
2023/04/01 12:33:57;;;;;;;3.67;2.70;;;10.90;99.90;;;;;;4936646;29;20186;-79
2023/04/01 12:36:41;;;;;;;3.03;2.33;;;10.90;99.90;;;;;;4936373;29;20176;-73
2023/04/01 12:39:58;;;;;;;3.78;3.30;;;10.90;99.90;;;;;;4951224;29;20179;-73
2023/04/01 12:42:37;;;;;;;4.32;2.97;;;10.90;99.90;;;;;;4924610;29;20666;-74
2023/04/01 12:45:45;;;;;;;3.08;2.72;;;10.90;99.90;;;;;;4936463;29;20163;-73
2023/04/01 12:48:51;;;;;;;4.90;2.83;;;10.90;99.90;;;;;;4914603;29;20187;-73
2023/04/01 12:51:38;;;;;;;3.58;2.80;;;10.90;99.90;;;;;;4936420;29;20628;-73
2023/04/01 12:54:31;;;;;;;4.80;2.90;;;10.90;99.90;;;;;;4936533;29;20561;-73
2023/04/01 12:57:15;;;;;;;3.00;2.70;;;10.90;99.90;;;;;;4935656;29;20187;-73
2023/04/01 12:59:54;;;;;;;3.45;2.65;;;10.90;99.90;;;;;;4935732;29;20183;-72
2023/04/01 13:02:32;;;;;;;3.55;2.85;;;10.90;99.90;;;;;;4936483;29;20175;-73
2023/04/01 13:05:15;;;;;;;4.93;2.78;;;10.90;99.90;;;;;;4936149;29;20585;-73
2023/04/01 13:08:27;;;;;;;3.17;2.67;;;10.90;99.90;;;;;;4950460;29;20177;-73
2023/04/01 13:11:25;;;;;;;2.85;2.65;;;10.80;99.90;;;;;;4936873;29;20175;-73
2023/04/01 13:14:10;;;;;;;3.92;3.00;;;10.80;99.90;;;;;;4936390;28;20176;-72
2023/04/01 13:16:48;;;;;;;3.13;2.72;;;10.80;99.90;;;;;;4936409;29;20168;-74
2023/04/01 13:19:37;;;;;;;3.58;2.80;;;10.80;99.90;;;;;;4934612;29;20245;-72
2023/04/01 13:22:11;;;;;;;3.58;2.60;;;10.80;99.90;;;;;;4931706;29;20231;-73
2023/04/01 13:24:37;;;;;;;3.60;3.17;;;10.80;99.90;;;;;;4935457;29;20266;-72
2023/04/01 13:27:17;;;;;;;3.30;2.40;;;10.80;99.90;;;;;;4935757;29;20214;-74
2023/04/01 13:29:52;;;;;;;3.78;2.58;;;10.80;99.90;;;;;;4935608;29;20203;-74
2023/04/01 13:32:42;;;;;;;3.42;2.65;;;10.80;99.90;;;;;;4951337;29;20579;-77
2023/04/01 13:35:22;;;;;;;4.57;2.70;;;10.80;99.90;;;;;;4935965;29;20172;-74
2023/04/01 13:38:15;;;;;;;3.50;2.45;;;10.80;99.90;;;;;;4951317;29;20185;-74